sensor_id;sensor_type;location;lat;lon;timestamp;P1;durP1;ratioP1;P2;durP2;ratioP2
56399;SDS011;42298;53.638;9.876;2024-01-15T00:00:12;15.37;;;3.23;;
56399;SDS011;42298;53.638;9.876;2024-01-15T00:02:38;16.70;;;3.60;;
56399;SDS011;42298;53.638;9.876;2024-01-15T00:05:04;11.70;;;3.10;;
56399;SDS011;42298;53.638;9.876;2024-01-15T00:07:29;10.90;;;2.80;;
56399;SDS011;42298;53.638;9.876;2024-01-15T00:09:55;10.17;;;2.50;;
56399;SDS011;42298;53.638;9.876;2024-01-15T00:12:20;10.27;;;2.50;;
56399;SDS011;42298;53.638;9.876;2024-01-15T00:14:45;12.40;;;2.97;;
56399;SDS011;42298;53.638;9.876;2024-01-15T00:17:11;9.80;;;2.53;;
56399;SDS011;42298;53.638;9.876;2024-01-15T00:19:36;11.67;;;2.70;;
56399;SDS011;42298;53.638;9.876;2024-01-15T00:22:01;9.53;;;2.77;;
56399;SDS011;42298;53.638;9.876;2024-01-15T00:24:27;12.60;;;2.60;;
56399;SDS011;42298;53.638;9.876;2024-01-15T00:26:52;9.53;;;2.47;;
56399;SDS011;42298;53.638;9.876;2024-01-15T00:29:18;13.67;;;3.20;;
56399;SDS011;42298;53.638;9.876;2024-01-15T00:31:44;10.23;;;2.53;;
56399;SDS011;42298;53.638;9.876;2024-01-15T00:34:09;10.93;;;2.63;;
56399;SDS011;42298;53.638;9.876;2024-01-15T00:36:35;9.37;;;3.00;;
56399;SDS011;42298;53.638;9.876;2024-01-15T00:39:00;13.60;;;3.37;;
56399;SDS011;42298;53.638;9.876;2024-01-15T00:41:26;9.80;;;2.97;;
56399;SDS011;42298;53.638;9.876;2024-01-15T00:43:52;12.50;;;2.60;;
56399;SDS011;42298;53.638;9.876;2024-01-15T00:46:18;14.70;;;3.13;;
56399;SDS011;42298;53.638;9.876;2024-01-15T00:48:44;18.90;;;4.03;;
56399;SDS011;42298;53.638;9.876;2024-01-15T00:51:09;11.83;;;2.67;;
56399;SDS011;42298;53.638;9.876;2024-01-15T00:53:34;19.00;;;3.67;;
56399;SDS011;42298;53.638;9.876;2024-01-15T00:56:00;16.53;;;3.10;;
56399;SDS011;42298;53.638;9.876;2024-01-15T00:58:26;10.60;;;3.10;;
56399;SDS011;42298;53.638;9.876;2024-01-15T01:00:52;15.57;;;3.27;;
56399;SDS011;42298;53.638;9.876;2024-01-15T01:03:17;18.30;;;3.93;;
56399;SDS011;42298;53.638;9.876;2024-01-15T01:05:43;12.37;;;2.90;;
56399;SDS011;42298;53.638;9.876;2024-01-15T01:08:09;18.83;;;4.10;;
56399;SDS011;42298;53.638;9.876;2024-01-15T01:10:34;17.87;;;3.73;;
56399;SDS011;42298;53.638;9.876;2024-01-15T01:13:00;19.20;;;4.37;;
56399;SDS011;42298;53.638;9.876;2024-01-15T01:15:25;13.50;;;3.03;;
56399;SDS011;42298;53.638;9.876;2024-01-15T01:17:51;13.50;;;3.27;;
56399;SDS011;42298;53.638;9.876;2024-01-15T01:20:16;16.43;;;3.60;;
56399;SDS011;42298;53.638;9.876;2024-01-15T01:22:41;14.73;;;2.90;;
56399;SDS011;42298;53.638;9.876;2024-01-15T01:25:07;14.67;;;2.80;;
56399;SDS011;42298;53.638;9.876;2024-01-15T01:27:33;15.23;;;2.90;;
56399;SDS011;42298;53.638;9.876;2024-01-15T01:29:58;17.27;;;3.50;;
56399;SDS011;42298;53.638;9.876;2024-01-15T01:32:24;15.87;;;3.10;;
56399;SDS011;42298;53.638;9.876;2024-01-15T01:34:49;9.27;;;2.40;;
56399;SDS011;42298;53.638;9.876;2024-01-15T01:37:14;14.07;;;3.00;;
56399;SDS011;42298;53.638;9.876;2024-01-15T01:39:40;11.70;;;3.47;;
56399;SDS011;42298;53.638;9.876;2024-01-15T01:42:06;14.93;;;3.37;;
56399;SDS011;42298;53.638;9.876;2024-01-15T01:44:32;16.00;;;3.47;;
56399;SDS011;42298;53.638;9.876;2024-01-15T01:46:58;14.17;;;3.33;;
56399;SDS011;42298;53.638;9.876;2024-01-15T01:49:24;15.83;;;3.40;;
56399;SDS011;42298;53.638;9.876;2024-01-15T01:51:50;11.83;;;2.63;;
56399;SDS011;42298;53.638;9.876;2024-01-15T01:54:16;12.50;;;2.50;;
56399;SDS011;42298;53.638;9.876;2024-01-15T01:56:43;13.60;;;3.30;;
56399;SDS011;42298;53.638;9.876;2024-01-15T01:59:09;12.90;;;3.23;;
56399;SDS011;42298;53.638;9.876;2024-01-15T02:01:36;14.83;;;2.87;;
56399;SDS011;42298;53.638;9.876;2024-01-15T02:04:01;10.17;;;2.70;;
56399;SDS011;42298;53.638;9.876;2024-01-15T02:06:28;14.13;;;2.80;;
56399;SDS011;42298;53.638;9.876;2024-01-15T02:08:53;11.90;;;2.70;;
56399;SDS011;42298;53.638;9.876;2024-01-15T02:11:19;10.37;;;2.77;;
56399;SDS011;42298;53.638;9.876;2024-01-15T02:13:45;10.17;;;2.10;;
56399;SDS011;42298;53.638;9.876;2024-01-15T02:16:10;9.53;;;2.67;;
56399;SDS011;42298;53.638;9.876;2024-01-15T02:18:41;14.23;;;2.37;;
56399;SDS011;42298;53.638;9.876;2024-01-15T02:21:08;10.57;;;2.20;;
56399;SDS011;42298;53.638;9.876;2024-01-15T02:23:33;12.00;;;2.70;;
56399;SDS011;42298;53.638;9.876;2024-01-15T02:25:59;9.67;;;2.37;;
56399;SDS011;42298;53.638;9.876;2024-01-15T02:28:24;9.00;;;2.30;;
56399;SDS011;42298;53.638;9.876;2024-01-15T02:30:49;13.73;;;3.30;;
56399;SDS011;42298;53.638;9.876;2024-01-15T02:33:15;12.97;;;2.77;;
56399;SDS011;42298;53.638;9.876;2024-01-15T02:35:40;16.43;;;2.90;;
56399;SDS011;42298;53.638;9.876;2024-01-15T02:38:06;11.97;;;2.63;;
56399;SDS011;42298;53.638;9.876;2024-01-15T02:40:32;11.20;;;2.63;;
56399;SDS011;42298;53.638;9.876;2024-01-15T02:42:57;11.10;;;2.47;;
56399;SDS011;42298;53.638;9.876;2024-01-15T02:45:23;12.13;;;3.10;;
56399;SDS011;42298;53.638;9.876;2024-01-15T02:47:48;16.93;;;3.60;;
56399;SDS011;42298;53.638;9.876;2024-01-15T02:50:14;12.00;;;3.87;;
56399;SDS011;42298;53.638;9.876;2024-01-15T02:52:41;13.93;;;3.50;;
56399;SDS011;42298;53.638;9.876;2024-01-15T02:55:06;17.23;;;3.97;;
56399;SDS011;42298;53.638;9.876;2024-01-15T02:57:32;12.60;;;3.53;;
56399;SDS011;42298;53.638;9.876;2024-01-15T02:59:57;11.87;;;2.90;;
56399;SDS011;42298;53.638;9.876;2024-01-15T03:02:23;12.40;;;3.17;;
56399;SDS011;42298;53.638;9.876;2024-01-15T03:04:48;11.50;;;3.40;;
56399;SDS011;42298;53.638;9.876;2024-01-15T03:07:13;10.47;;;2.47;;
56399;SDS011;42298;53.638;9.876;2024-01-15T03:09:39;19.37;;;3.47;;
56399;SDS011;42298;53.638;9.876;2024-01-15T03:12:04;13.80;;;3.50;;
56399;SDS011;42298;53.638;9.876;2024-01-15T03:14:30;15.70;;;3.10;;
56399;SDS011;42298;53.638;9.876;2024-01-15T03:16:55;9.40;;;2.97;;
56399;SDS011;42298;53.638;9.876;2024-01-15T03:19:20;13.57;;;3.17;;
56399;SDS011;42298;53.638;9.876;2024-01-15T03:21:46;9.37;;;3.30;;
56399;SDS011;42298;53.638;9.876;2024-01-15T03:24:11;16.07;;;3.40;;
56399;SDS011;42298;53.638;9.876;2024-01-15T03:26:36;10.83;;;3.00;;
56399;SDS011;42298;53.638;9.876;2024-01-15T03:29:02;18.40;;;3.40;;
56399;SDS011;42298;53.638;9.876;2024-01-15T03:31:27;15.93;;;3.27;;
56399;SDS011;42298;53.638;9.876;2024-01-15T03:33:52;19.33;;;3.77;;
56399;SDS011;42298;53.638;9.876;2024-01-15T03:36:17;20.23;;;3.47;;
56399;SDS011;42298;53.638;9.876;2024-01-15T03:38:43;13.47;;;3.60;;
56399;SDS011;42298;53.638;9.876;2024-01-15T03:41:08;17.47;;;4.47;;
56399;SDS011;42298;53.638;9.876;2024-01-15T03:43:34;21.13;;;4.40;;
56399;SDS011;42298;53.638;9.876;2024-01-15T03:45:59;15.27;;;3.13;;
56399;SDS011;42298;53.638;9.876;2024-01-15T03:48:24;17.50;;;3.60;;
56399;SDS011;42298;53.638;9.876;2024-01-15T03:50:50;18.43;;;3.73;;
56399;SDS011;42298;53.638;9.876;2024-01-15T03:53:15;20.33;;;4.23;;
56399;SDS011;42298;53.638;9.876;2024-01-15T03:55:40;15.73;;;3.33;;
56399;SDS011;42298;53.638;9.876;2024-01-15T03:58:06;18.43;;;3.37;;
56399;SDS011;42298;53.638;9.876;2024-01-15T04:00:31;16.73;;;3.73;;
56399;SDS011;42298;53.638;9.876;2024-01-15T04:02:56;18.63;;;4.17;;
56399;SDS011;42298;53.638;9.876;2024-01-15T04:05:21;11.10;;;3.13;;
56399;SDS011;42298;53.638;9.876;2024-01-15T04:07:47;16.67;;;3.40;;
56399;SDS011;42298;53.638;9.876;2024-01-15T04:10:12;14.63;;;3.27;;
56399;SDS011;42298;53.638;9.876;2024-01-15T04:12:38;15.40;;;2.97;;
56399;SDS011;42298;53.638;9.876;2024-01-15T04:15:03;12.63;;;3.30;;
56399;SDS011;42298;53.638;9.876;2024-01-15T04:17:28;13.43;;;3.13;;
56399;SDS011;42298;53.638;9.876;2024-01-15T04:19:54;14.60;;;3.60;;
56399;SDS011;42298;53.638;9.876;2024-01-15T04:22:19;14.83;;;3.17;;
56399;SDS011;42298;53.638;9.876;2024-01-15T04:24:45;13.37;;;3.20;;
56399;SDS011;42298;53.638;9.876;2024-01-15T04:27:11;16.20;;;3.43;;
56399;SDS011;42298;53.638;9.876;2024-01-15T04:29:39;20.23;;;4.17;;
56399;SDS011;42298;53.638;9.876;2024-01-15T04:32:05;17.80;;;3.60;;
56399;SDS011;42298;53.638;9.876;2024-01-15T04:34:30;15.70;;;3.73;;
56399;SDS011;42298;53.638;9.876;2024-01-15T04:36:56;20.90;;;3.87;;
56399;SDS011;42298;53.638;9.876;2024-01-15T04:39:22;22.53;;;4.30;;
56399;SDS011;42298;53.638;9.876;2024-01-15T04:41:47;20.33;;;4.60;;
56399;SDS011;42298;53.638;9.876;2024-01-15T04:44:13;16.93;;;3.90;;
56399;SDS011;42298;53.638;9.876;2024-01-15T04:46:38;23.53;;;4.63;;
56399;SDS011;42298;53.638;9.876;2024-01-15T04:49:03;24.80;;;4.90;;
56399;SDS011;42298;53.638;9.876;2024-01-15T04:51:29;26.03;;;5.03;;
56399;SDS011;42298;53.638;9.876;2024-01-15T04:53:54;22.97;;;4.87;;
56399;SDS011;42298;53.638;9.876;2024-01-15T04:56:19;23.10;;;5.03;;
56399;SDS011;42298;53.638;9.876;2024-01-15T04:58:45;30.03;;;4.90;;
56399;SDS011;42298;53.638;9.876;2024-01-15T05:01:10;23.23;;;4.70;;
56399;SDS011;42298;53.638;9.876;2024-01-15T05:03:36;22.70;;;5.07;;
56399;SDS011;42298;53.638;9.876;2024-01-15T05:06:07;24.30;;;6.30;;
56399;SDS011;42298;53.638;9.876;2024-01-15T05:08:32;25.73;;;5.70;;
56399;SDS011;42298;53.638;9.876;2024-01-15T05:10:57;25.10;;;5.80;;
56399;SDS011;42298;53.638;9.876;2024-01-15T05:13:23;21.77;;;4.73;;
56399;SDS011;42298;53.638;9.876;2024-01-15T05:15:48;18.17;;;5.07;;
56399;SDS011;42298;53.638;9.876;2024-01-15T05:18:13;23.83;;;5.27;;
56399;SDS011;42298;53.638;9.876;2024-01-15T05:20:39;22.37;;;4.97;;
56399;SDS011;42298;53.638;9.876;2024-01-15T05:23:04;22.47;;;5.33;;
56399;SDS011;42298;53.638;9.876;2024-01-15T05:25:29;20.60;;;4.67;;
56399;SDS011;42298;53.638;9.876;2024-01-15T05:27:55;25.17;;;4.70;;
56399;SDS011;42298;53.638;9.876;2024-01-15T05:30:20;24.07;;;4.83;;
56399;SDS011;42298;53.638;9.876;2024-01-15T05:32:45;16.53;;;4.27;;
56399;SDS011;42298;53.638;9.876;2024-01-15T05:35:11;21.23;;;5.07;;
56399;SDS011;42298;53.638;9.876;2024-01-15T05:37:36;21.73;;;5.17;;
56399;SDS011;42298;53.638;9.876;2024-01-15T05:40:01;22.60;;;5.70;;
56399;SDS011;42298;53.638;9.876;2024-01-15T05:42:29;23.93;;;4.97;;
56399;SDS011;42298;53.638;9.876;2024-01-15T05:44:55;18.30;;;3.80;;
56399;SDS011;42298;53.638;9.876;2024-01-15T05:47:21;16.83;;;4.00;;
56399;SDS011;42298;53.638;9.876;2024-01-15T05:49:47;22.30;;;4.30;;
56399;SDS011;42298;53.638;9.876;2024-01-15T05:52:13;21.80;;;5.47;;
56399;SDS011;42298;53.638;9.876;2024-01-15T05:54:38;24.73;;;5.00;;
56399;SDS011;42298;53.638;9.876;2024-01-15T05:57:03;21.10;;;4.80;;
56399;SDS011;42298;53.638;9.876;2024-01-15T05:59:29;25.02;;;6.40;;
56399;SDS011;42298;53.638;9.876;2024-01-15T06:01:57;24.90;;;4.50;;
56399;SDS011;42298;53.638;9.876;2024-01-15T06:04:22;20.43;;;4.10;;
56399;SDS011;42298;53.638;9.876;2024-01-15T06:06:48;26.33;;;4.77;;
56399;SDS011;42298;53.638;9.876;2024-01-15T06:09:13;21.30;;;5.47;;
56399;SDS011;42298;53.638;9.876;2024-01-15T06:11:39;16.50;;;4.50;;
56399;SDS011;42298;53.638;9.876;2024-01-15T06:14:04;22.10;;;4.60;;
56399;SDS011;42298;53.638;9.876;2024-01-15T06:16:29;16.33;;;4.33;;
56399;SDS011;42298;53.638;9.876;2024-01-15T06:18:55;16.63;;;3.77;;
56399;SDS011;42298;53.638;9.876;2024-01-15T06:21:20;20.67;;;4.67;;
56399;SDS011;42298;53.638;9.876;2024-01-15T06:23:46;18.70;;;3.77;;
56399;SDS011;42298;53.638;9.876;2024-01-15T06:26:11;14.83;;;3.53;;
56399;SDS011;42298;53.638;9.876;2024-01-15T06:28:37;18.07;;;3.53;;
56399;SDS011;42298;53.638;9.876;2024-01-15T06:31:02;13.43;;;2.97;;
56399;SDS011;42298;53.638;9.876;2024-01-15T06:33:28;15.27;;;3.53;;
56399;SDS011;42298;53.638;9.876;2024-01-15T06:35:53;16.17;;;3.33;;
56399;SDS011;42298;53.638;9.876;2024-01-15T06:38:19;14.80;;;3.97;;
56399;SDS011;42298;53.638;9.876;2024-01-15T06:40:44;12.53;;;2.90;;
56399;SDS011;42298;53.638;9.876;2024-01-15T06:43:13;19.13;;;4.07;;
56399;SDS011;42298;53.638;9.876;2024-01-15T06:45:40;9.60;;;2.53;;
56399;SDS011;42298;53.638;9.876;2024-01-15T06:48:06;13.40;;;2.43;;
56399;SDS011;42298;53.638;9.876;2024-01-15T06:50:32;12.17;;;2.80;;
56399;SDS011;42298;53.638;9.876;2024-01-15T06:52:58;17.30;;;3.97;;
56399;SDS011;42298;53.638;9.876;2024-01-15T06:55:24;17.67;;;3.10;;
56399;SDS011;42298;53.638;9.876;2024-01-15T06:57:51;14.10;;;3.03;;
56399;SDS011;42298;53.638;9.876;2024-01-15T07:00:17;12.53;;;2.93;;
56399;SDS011;42298;53.638;9.876;2024-01-15T07:02:44;17.67;;;3.27;;
56399;SDS011;42298;53.638;9.876;2024-01-15T07:05:10;16.20;;;3.77;;
56399;SDS011;42298;53.638;9.876;2024-01-15T07:07:35;17.17;;;3.67;;
56399;SDS011;42298;53.638;9.876;2024-01-15T07:10:01;13.50;;;3.70;;
56399;SDS011;42298;53.638;9.876;2024-01-15T07:12:27;14.90;;;3.70;;
56399;SDS011;42298;53.638;9.876;2024-01-15T07:14:52;16.70;;;2.90;;
56399;SDS011;42298;53.638;9.876;2024-01-15T07:17:17;14.97;;;3.10;;
56399;SDS011;42298;53.638;9.876;2024-01-15T07:19:43;11.70;;;3.50;;
56399;SDS011;42298;53.638;9.876;2024-01-15T07:22:09;12.07;;;2.87;;
56399;SDS011;42298;53.638;9.876;2024-01-15T07:24:35;13.83;;;2.70;;
56399;SDS011;42298;53.638;9.876;2024-01-15T07:27:00;10.97;;;3.10;;
56399;SDS011;42298;53.638;9.876;2024-01-15T07:29:26;10.67;;;2.40;;
56399;SDS011;42298;53.638;9.876;2024-01-15T07:31:51;13.50;;;2.47;;
56399;SDS011;42298;53.638;9.876;2024-01-15T07:34:17;10.07;;;2.63;;
56399;SDS011;42298;53.638;9.876;2024-01-15T07:36:44;10.30;;;2.47;;
56399;SDS011;42298;53.638;9.876;2024-01-15T07:39:10;8.27;;;2.28;;
56399;SDS011;42298;53.638;9.876;2024-01-15T07:41:35;10.23;;;2.43;;
56399;SDS011;42298;53.638;9.876;2024-01-15T07:44:01;9.40;;;2.47;;
56399;SDS011;42298;53.638;9.876;2024-01-15T07:46:26;10.97;;;2.67;;
56399;SDS011;42298;53.638;9.876;2024-01-15T07:48:52;8.97;;;2.10;;
56399;SDS011;42298;53.638;9.876;2024-01-15T07:51:21;13.33;;;2.20;;
56399;SDS011;42298;53.638;9.876;2024-01-15T07:53:47;11.60;;;2.40;;
56399;SDS011;42298;53.638;9.876;2024-01-15T07:56:12;10.63;;;2.57;;
56399;SDS011;42298;53.638;9.876;2024-01-15T07:58:38;10.97;;;2.20;;
56399;SDS011;42298;53.638;9.876;2024-01-15T08:01:03;15.60;;;3.40;;
56399;SDS011;42298;53.638;9.876;2024-01-15T08:03:28;13.33;;;2.90;;
56399;SDS011;42298;53.638;9.876;2024-01-15T08:05:54;12.77;;;2.70;;
56399;SDS011;42298;53.638;9.876;2024-01-15T08:08:20;9.97;;;2.47;;
56399;SDS011;42298;53.638;9.876;2024-01-15T08:10:49;15.10;;;3.43;;
56399;SDS011;42298;53.638;9.876;2024-01-15T08:13:14;12.27;;;2.70;;
56399;SDS011;42298;53.638;9.876;2024-01-15T08:15:40;12.70;;;2.70;;
56399;SDS011;42298;53.638;9.876;2024-01-15T08:18:06;12.75;;;3.22;;
56399;SDS011;42298;53.638;9.876;2024-01-15T08:20:32;11.83;;;2.80;;
56399;SDS011;42298;53.638;9.876;2024-01-15T08:22:57;13.27;;;2.90;;
56399;SDS011;42298;53.638;9.876;2024-01-15T08:25:23;14.10;;;2.97;;
56399;SDS011;42298;53.638;9.876;2024-01-15T08:27:48;13.50;;;2.63;;
56399;SDS011;42298;53.638;9.876;2024-01-15T08:30:14;10.03;;;2.40;;
56399;SDS011;42298;53.638;9.876;2024-01-15T08:32:39;12.20;;;2.80;;
56399;SDS011;42298;53.638;9.876;2024-01-15T08:35:08;11.43;;;2.60;;
56399;SDS011;42298;53.638;9.876;2024-01-15T08:37:34;19.17;;;2.70;;
56399;SDS011;42298;53.638;9.876;2024-01-15T08:39:59;12.77;;;3.07;;
56399;SDS011;42298;53.638;9.876;2024-01-15T08:42:25;10.00;;;2.37;;
56399;SDS011;42298;53.638;9.876;2024-01-15T08:44:50;13.40;;;2.93;;
56399;SDS011;42298;53.638;9.876;2024-01-15T08:47:16;9.47;;;2.40;;
56399;SDS011;42298;53.638;9.876;2024-01-15T08:49:42;12.23;;;3.10;;
56399;SDS011;42298;53.638;9.876;2024-01-15T08:52:09;11.90;;;2.63;;
56399;SDS011;42298;53.638;9.876;2024-01-15T08:54:34;10.77;;;2.23;;
56399;SDS011;42298;53.638;9.876;2024-01-15T08:57:00;14.37;;;3.10;;
56399;SDS011;42298;53.638;9.876;2024-01-15T08:59:25;10.07;;;2.40;;
56399;SDS011;42298;53.638;9.876;2024-01-15T09:01:51;9.13;;;2.17;;
56399;SDS011;42298;53.638;9.876;2024-01-15T09:04:17;8.40;;;2.20;;
56399;SDS011;42298;53.638;9.876;2024-01-15T09:06:46;10.73;;;2.57;;
56399;SDS011;42298;53.638;9.876;2024-01-15T09:09:14;10.90;;;2.67;;
56399;SDS011;42298;53.638;9.876;2024-01-15T09:11:40;14.43;;;2.80;;
56399;SDS011;42298;53.638;9.876;2024-01-15T09:14:06;14.57;;;3.23;;
56399;SDS011;42298;53.638;9.876;2024-01-15T09:16:33;7.73;;;2.20;;
56399;SDS011;42298;53.638;9.876;2024-01-15T09:18:58;12.73;;;2.90;;
56399;SDS011;42298;53.638;9.876;2024-01-15T09:21:23;11.00;;;2.63;;
56399;SDS011;42298;53.638;9.876;2024-01-15T09:23:52;9.90;;;3.00;;
56399;SDS011;42298;53.638;9.876;2024-01-15T09:26:17;13.97;;;2.93;;
56399;SDS011;42298;53.638;9.876;2024-01-15T09:28:43;11.17;;;2.77;;
56399;SDS011;42298;53.638;9.876;2024-01-15T09:31:08;13.50;;;2.50;;
56399;SDS011;42298;53.638;9.876;2024-01-15T09:33:34;11.70;;;2.70;;
56399;SDS011;42298;53.638;9.876;2024-01-15T09:36:02;9.87;;;2.93;;
56399;SDS011;42298;53.638;9.876;2024-01-15T09:38:29;15.57;;;3.60;;
56399;SDS011;42298;53.638;9.876;2024-01-15T09:40:55;10.53;;;2.37;;
56399;SDS011;42298;53.638;9.876;2024-01-15T09:43:20;12.87;;;2.97;;
56399;SDS011;42298;53.638;9.876;2024-01-15T09:45:49;14.77;;;2.83;;
56399;SDS011;42298;53.638;9.876;2024-01-15T09:48:15;14.13;;;3.10;;
56399;SDS011;42298;53.638;9.876;2024-01-15T09:50:41;13.90;;;2.67;;
56399;SDS011;42298;53.638;9.876;2024-01-15T09:53:07;14.47;;;3.57;;
56399;SDS011;42298;53.638;9.876;2024-01-15T09:55:34;14.03;;;3.47;;
56399;SDS011;42298;53.638;9.876;2024-01-15T09:58:03;11.03;;;2.70;;
56399;SDS011;42298;53.638;9.876;2024-01-15T10:00:29;11.77;;;2.60;;
56399;SDS011;42298;53.638;9.876;2024-01-15T10:02:57;16.30;;;3.23;;
56399;SDS011;42298;53.638;9.876;2024-01-15T10:05:25;14.23;;;3.37;;
56399;SDS011;42298;53.638;9.876;2024-01-15T10:07:51;11.53;;;2.80;;
56399;SDS011;42298;53.638;9.876;2024-01-15T10:10:19;9.07;;;2.90;;
56399;SDS011;42298;53.638;9.876;2024-01-15T10:12:46;10.90;;;2.50;;
56399;SDS011;42298;53.638;9.876;2024-01-15T10:15:12;12.30;;;2.67;;
56399;SDS011;42298;53.638;9.876;2024-01-15T10:17:38;11.53;;;3.20;;
56399;SDS011;42298;53.638;9.876;2024-01-15T10:20:11;10.93;;;2.80;;
56399;SDS011;42298;53.638;9.876;2024-01-15T10:22:43;10.83;;;2.53;;
56399;SDS011;42298;53.638;9.876;2024-01-15T10:25:11;10.10;;;2.47;;
56399;SDS011;42298;53.638;9.876;2024-01-15T10:27:37;8.27;;;2.30;;
56399;SDS011;42298;53.638;9.876;2024-01-15T10:30:03;7.57;;;2.17;;
56399;SDS011;42298;53.638;9.876;2024-01-15T10:32:29;9.20;;;2.13;;
56399;SDS011;42298;53.638;9.876;2024-01-15T10:34:55;6.07;;;1.90;;
56399;SDS011;42298;53.638;9.876;2024-01-15T10:37:21;9.30;;;2.27;;
56399;SDS011;42298;53.638;9.876;2024-01-15T10:39:48;11.70;;;2.50;;
56399;SDS011;42298;53.638;9.876;2024-01-15T10:42:14;9.50;;;2.53;;
56399;SDS011;42298;53.638;9.876;2024-01-15T10:44:40;9.80;;;2.70;;
56399;SDS011;42298;53.638;9.876;2024-01-15T10:47:08;7.53;;;2.00;;
56399;SDS011;42298;53.638;9.876;2024-01-15T10:49:33;9.60;;;2.67;;
56399;SDS011;42298;53.638;9.876;2024-01-15T10:52:00;8.20;;;2.47;;
56399;SDS011;42298;53.638;9.876;2024-01-15T10:54:26;7.93;;;2.03;;
56399;SDS011;42298;53.638;9.876;2024-01-15T10:56:53;10.73;;;1.97;;
56399;SDS011;42298;53.638;9.876;2024-01-15T10:59:20;5.17;;;1.93;;
56399;SDS011;42298;53.638;9.876;2024-01-15T11:01:47;3.67;;;2.00;;
56399;SDS011;42298;53.638;9.876;2024-01-15T11:04:14;9.03;;;2.23;;
56399;SDS011;42298;53.638;9.876;2024-01-15T11:06:45;6.20;;;2.37;;
56399;SDS011;42298;53.638;9.876;2024-01-15T11:09:15;8.13;;;2.42;;
56399;SDS011;42298;53.638;9.876;2024-01-15T11:11:45;7.57;;;2.40;;
56399;SDS011;42298;53.638;9.876;2024-01-15T11:14:33;11.30;;;2.77;;
56399;SDS011;42298;53.638;9.876;2024-01-15T11:17:03;9.43;;;3.17;;
56399;SDS011;42298;53.638;9.876;2024-01-15T11:19:38;8.50;;;3.10;;
56399;SDS011;42298;53.638;9.876;2024-01-15T11:22:03;14.10;;;2.97;;
56399;SDS011;42298;53.638;9.876;2024-01-15T11:24:35;11.33;;;3.23;;
56399;SDS011;42298;53.638;9.876;2024-01-15T11:27:01;7.87;;;2.20;;
56399;SDS011;42298;53.638;9.876;2024-01-15T11:31:56;11.00;;;2.90;;
56399;SDS011;42298;53.638;9.876;2024-01-15T11:37:23;8.93;;;2.47;;
56399;SDS011;42298;53.638;9.876;2024-01-15T11:39:50;8.17;;;2.10;;
56399;SDS011;42298;53.638;9.876;2024-01-15T11:42:19;7.17;;;2.03;;
56399;SDS011;42298;53.638;9.876;2024-01-15T11:44:47;7.57;;;2.50;;
56399;SDS011;42298;53.638;9.876;2024-01-15T11:47:12;7.87;;;2.37;;
56399;SDS011;42298;53.638;9.876;2024-01-15T11:52:38;7.83;;;1.90;;
56399;SDS011;42298;53.638;9.876;2024-01-15T11:57:52;9.33;;;2.67;;
56399;SDS011;42298;53.638;9.876;2024-01-15T12:00:21;7.33;;;2.20;;
56399;SDS011;42298;53.638;9.876;2024-01-15T12:02:48;6.93;;;1.93;;
56399;SDS011;42298;53.638;9.876;2024-01-15T12:05:16;7.90;;;2.40;;
56399;SDS011;42298;53.638;9.876;2024-01-15T12:07:43;7.67;;;2.30;;
56399;SDS011;42298;53.638;9.876;2024-01-15T12:10:11;6.97;;;2.60;;
56399;SDS011;42298;53.638;9.876;2024-01-15T12:12:51;8.60;;;2.13;;
56399;SDS011;42298;53.638;9.876;2024-01-15T12:15:27;8.03;;;2.20;;
56399;SDS011;42298;53.638;9.876;2024-01-15T12:17:57;8.17;;;2.37;;
56399;SDS011;42298;53.638;9.876;2024-01-15T12:20:25;8.13;;;2.20;;
56399;SDS011;42298;53.638;9.876;2024-01-15T12:22:51;6.93;;;2.33;;
56399;SDS011;42298;53.638;9.876;2024-01-15T12:25:16;7.30;;;2.23;;
56399;SDS011;42298;53.638;9.876;2024-01-15T12:27:42;6.53;;;2.07;;
56399;SDS011;42298;53.638;9.876;2024-01-15T12:30:09;7.13;;;2.60;;
56399;SDS011;42298;53.638;9.876;2024-01-15T12:32:36;6.00;;;2.10;;
56399;SDS011;42298;53.638;9.876;2024-01-15T12:35:01;4.13;;;2.00;;
56399;SDS011;42298;53.638;9.876;2024-01-15T12:37:27;5.97;;;1.97;;
56399;SDS011;42298;53.638;9.876;2024-01-15T12:39:54;3.83;;;1.87;;
56399;SDS011;42298;53.638;9.876;2024-01-15T12:42:20;5.87;;;1.97;;
56399;SDS011;42298;53.638;9.876;2024-01-15T12:44:46;6.37;;;2.43;;
56399;SDS011;42298;53.638;9.876;2024-01-15T12:47:12;3.50;;;2.10;;
56399;SDS011;42298;53.638;9.876;2024-01-15T12:49:38;4.33;;;2.00;;
56399;SDS011;42298;53.638;9.876;2024-01-15T12:52:04;4.67;;;1.93;;
56399;SDS011;42298;53.638;9.876;2024-01-15T12:54:33;3.27;;;1.53;;
56399;SDS011;42298;53.638;9.876;2024-01-15T12:56:58;3.90;;;2.00;;
56399;SDS011;42298;53.638;9.876;2024-01-15T12:59:24;4.87;;;2.23;;
56399;SDS011;42298;53.638;9.876;2024-01-15T13:01:49;6.67;;;2.33;;
56399;SDS011;42298;53.638;9.876;2024-01-15T13:04:24;5.17;;;1.70;;
56399;SDS011;42298;53.638;9.876;2024-01-15T13:06:50;4.03;;;1.90;;
56399;SDS011;42298;53.638;9.876;2024-01-15T13:09:18;4.23;;;2.00;;
56399;SDS011;42298;53.638;9.876;2024-01-15T13:11:46;3.50;;;1.60;;
56399;SDS011;42298;53.638;9.876;2024-01-15T13:14:12;5.23;;;2.13;;
56399;SDS011;42298;53.638;9.876;2024-01-15T13:16:38;3.23;;;2.00;;
56399;SDS011;42298;53.638;9.876;2024-01-15T13:19:04;3.43;;;1.87;;
56399;SDS011;42298;53.638;9.876;2024-01-15T13:21:32;3.53;;;1.93;;
56399;SDS011;42298;53.638;9.876;2024-01-15T13:23:57;5.33;;;1.83;;
56399;SDS011;42298;53.638;9.876;2024-01-15T13:26:23;2.73;;;1.60;;
56399;SDS011;42298;53.638;9.876;2024-01-15T13:28:48;4.87;;;2.10;;
56399;SDS011;42298;53.638;9.876;2024-01-15T13:31:14;3.63;;;1.80;;
56399;SDS011;42298;53.638;9.876;2024-01-15T13:33:39;3.93;;;2.00;;
56399;SDS011;42298;53.638;9.876;2024-01-15T13:36:05;4.20;;;2.07;;
56399;SDS011;42298;53.638;9.876;2024-01-15T13:38:33;3.80;;;2.10;;
56399;SDS011;42298;53.638;9.876;2024-01-15T13:41:01;6.43;;;2.40;;
56399;SDS011;42298;53.638;9.876;2024-01-15T13:43:27;3.50;;;1.93;;
56399;SDS011;42298;53.638;9.876;2024-01-15T13:45:53;7.50;;;2.00;;
56399;SDS011;42298;53.638;9.876;2024-01-15T13:48:19;4.37;;;1.90;;
56399;SDS011;42298;53.638;9.876;2024-01-15T13:50:58;7.57;;;1.83;;
56399;SDS011;42298;53.638;9.876;2024-01-15T13:53:24;6.20;;;2.35;;
56399;SDS011;42298;53.638;9.876;2024-01-15T13:55:50;6.37;;;2.17;;
56399;SDS011;42298;53.638;9.876;2024-01-15T13:58:15;3.03;;;1.90;;
56399;SDS011;42298;53.638;9.876;2024-01-15T14:00:43;2.43;;;1.83;;
56399;SDS011;42298;53.638;9.876;2024-01-15T14:03:10;3.23;;;1.73;;
56399;SDS011;42298;53.638;9.876;2024-01-15T14:05:35;2.40;;;1.63;;
56399;SDS011;42298;53.638;9.876;2024-01-15T14:08:00;3.30;;;1.80;;
56399;SDS011;42298;53.638;9.876;2024-01-15T14:10:25;4.43;;;2.10;;
56399;SDS011;42298;53.638;9.876;2024-01-15T14:12:51;1.90;;;1.30;;
56399;SDS011;42298;53.638;9.876;2024-01-15T14:15:16;3.40;;;1.50;;
56399;SDS011;42298;53.638;9.876;2024-01-15T14:17:41;2.80;;;1.63;;
56399;SDS011;42298;53.638;9.876;2024-01-15T14:20:07;2.10;;;1.53;;
56399;SDS011;42298;53.638;9.876;2024-01-15T14:22:34;3.47;;;1.47;;
56399;SDS011;42298;53.638;9.876;2024-01-15T14:25:00;2.27;;;1.60;;
56399;SDS011;42298;53.638;9.876;2024-01-15T14:27:25;1.93;;;1.60;;
56399;SDS011;42298;53.638;9.876;2024-01-15T14:29:51;3.93;;;1.90;;
56399;SDS011;42298;53.638;9.876;2024-01-15T14:32:16;3.30;;;1.67;;
56399;SDS011;42298;53.638;9.876;2024-01-15T14:34:41;2.30;;;1.60;;
56399;SDS011;42298;53.638;9.876;2024-01-15T14:37:08;3.87;;;2.00;;
56399;SDS011;42298;53.638;9.876;2024-01-15T14:39:33;2.90;;;1.67;;
56399;SDS011;42298;53.638;9.876;2024-01-15T14:41:59;2.73;;;1.67;;